METAR Data
IDs: Format: Raw Decoded Include TAF

Data at: 2233 UTC 20 Nov 2018

KTFP 202215Z AUTO 04008KT 10SM OVC075 18/07 A3024 RMK AO2 T01750066 PNO
KTFP 202155Z AUTO 05006KT 10SM OVC075 17/06 A3023 RMK AO2 T01700062 PNO
KTFP 202135Z AUTO 04009KT 10SM SCT075 17/06 A3023 RMK AO2 T01690058 PNO
KTFP 202115Z AUTO 05010KT 10SM CLR 17/06 A3023 RMK AO2 T01720061 PNO
KTFP 202055Z AUTO 06009KT 10SM CLR 17/06 A3024 RMK AO2 T01720063 PNO
KTFP 202035Z AUTO 06005KT 10SM BKN050 17/07 A3025 RMK AO2 T01650065 PNO
KTFP 202015Z AUTO 03004KT 10SM OVC050 16/07 A3026 RMK AO2 T01620065 PNO
KTFP 201955Z AUTO 04004KT 10SM OVC050 16/07 A3027 RMK AO2 T01600065 PNO
KTFP 201935Z AUTO 04007KT 10SM OVC050 16/06 A3026 RMK AO2 T01550064 PNO
KTFP 201915Z AUTO 05008KT 10SM OVC050 15/06 A3027 RMK AO2 T01500063 PNO
KTFP 201855Z AUTO 05009KT 10SM OVC048 15/06 A3028 RMK AO2 T01490062 PNO
KTFP 201835Z AUTO 04008KT 10SM OVC046 15/06 A3030 RMK AO2 T01470059 PNO
KTFP 201815Z AUTO 05010KT 10SM OVC044 15/06 A3030 RMK AO2 T01450056 PNO
KTFP 201755Z AUTO 05010KT 10SM OVC044 14/06 A3031 RMK AO2 T01440058 PNO
KTFP 201735Z AUTO 04010KT 10SM OVC044 14/06 A3032 RMK AO2 T01400058 PNO
KTFP 201715Z AUTO 05010G15KT 10SM OVC042 14/06 A3033 RMK AO2 T01380057 PNO
KTFP 201655Z AUTO 04014KT 10SM OVC042 13/06 A3033 RMK AO2 T01340055 PNO
KTFP 201635Z AUTO 04015KT 10SM OVC042 14/06 A3032 RMK AO2 T01350055 PNO
KTFP 201615Z AUTO 04015G19KT 10SM OVC042 14/05 A3032 RMK AO2 T01360054 PNO
KTFP 201555Z AUTO 04019G23KT 10SM BKN040 14/06 A3031 RMK AO2 T01360057 PNO
KTFP 201535Z AUTO 04017KT 10SM BKN038 13/05 A3031 RMK AO2 T01270053 PNO
KTFP 201355Z AUTO 04010G21KT 10SM OVC070 12/06 A3029 RMK AO2 T01150056 PNO
KTFP 201335Z AUTO 03014G18KT 10SM OVC060 12/06 A3027 RMK AO2 T01150058 PNO
KTFP 201315Z AUTO 03013KT 10SM SCT034 OVC060 12/06 A3027 RMK AO2 T01150059 PNO
KTFP 201255Z AUTO 03014KT 10SM BKN060 12/06 A3026 RMK AO2 T01170061 PNO
KTFP 201235Z AUTO 04010KT 10SM OVC050 12/06 A3025 RMK AO2 T01180061 PNO
KTFP 201215Z AUTO 04012G17KT 10SM SCT035 SCT043 OVC050 12/06 A3024 RMK AO2 T01170062 PNO
KTFP 201155Z AUTO 03012G18KT 10SM BKN035 OVC043 12/06 A3023 RMK AO2 T01180062 PNO
KTFP 201135Z AUTO 04014G18KT 10SM OVC035 12/06 A3023 RMK AO2 T01200062 PNO
KTFP 201115Z AUTO 03011KT 10SM OVC033 12/07 A3023 RMK AO2 T01200065 PNO
KTFP 201055Z AUTO 03012G16KT 10SM OVC031 12/07 A3022 RMK AO2 T01200068 PNO
KTFP 201035Z AUTO 03009KT 10SM OVC031 12/07 A3021 RMK AO2 T01200071 PNO
KTFP 201015Z AUTO 03009KT 10SM OVC029 12/07 A3021 RMK AO2 T01180072 PNO
KTFP 200955Z AUTO 03009KT 10SM OVC029 12/07 A3020 RMK AO2 T01170073 PNO
KTFP 200935Z AUTO 02007KT 10SM OVC025 12/07 A3020 RMK AO2 T01170073 PNO
KTFP 200915Z AUTO 02010KT 10SM OVC021 12/07 A3020 RMK AO2 T01160074 PNO
KTFP 200855Z AUTO 02010KT 10SM OVC021 12/08 A3020 RMK AO2 T01160076 PNO
KTFP 200835Z AUTO 02010KT 10SM OVC021 12/08 A3019 RMK AO2 T01160077 PNO
KTFP 200815Z AUTO 01010KT 10SM OVC021 12/08 A3019 RMK AO2 T01160079 PNO
KTFP 200755Z AUTO 02010KT 10SM OVC017 12/08 A3019 RMK AO2 T01160080 PNO
KTFP 200735Z AUTO 02009KT 10SM OVC015 12/08 A3019 RMK AO2 T01150081 PNO
KTFP 200715Z AUTO 01008KT 10SM OVC015 12/08 A3020 RMK AO2 T01160082 PNO
KTFP 200655Z AUTO 02009KT 10SM OVC015 12/08 A3020 RMK AO2 T01150084 PNO
KTFP 200635Z AUTO 02008KT 10SM OVC015 12/09 A3020 RMK AO2 T01150085 PNO
KTFP 200615Z AUTO 01008KT 10SM OVC013 12/09 A3020 RMK AO2 T01150085 PNO
KTFP 200555Z AUTO 01009KT 10SM OVC013 12/09 A3020 RMK AO2 T01150085 PNO
KTFP 200535Z AUTO 01008KT 10SM OVC013 11/09 A3020 RMK AO2 T01140086 PNO
KTFP 200515Z AUTO 01007KT 10SM OVC013 11/09 A3020 RMK AO2 T01130086 PNO
KTFP 200455Z AUTO 01008KT 10SM OVC013 11/09 A3019 RMK AO2 T01130087 PNO
KTFP 200435Z AUTO 01006KT 10SM OVC013 11/09 A3019 RMK AO2 T01130089 PNO
KTFP 200415Z AUTO 36006KT 10SM OVC013 11/09 A3019 RMK AO2 T01130091 PNO
KTFP 200355Z AUTO 36007KT 10SM OVC013 11/09 A3018 RMK AO2 T01120092 PNO
KTFP 200335Z AUTO 36006KT 10SM OVC013 11/09 A3018 RMK AO2 T01120092 PNO
KTFP 200315Z AUTO 35005KT 10SM OVC011 11/09 A3018 RMK AO2 T01110091 PNO
KTFP 200255Z AUTO 36005KT 10SM OVC009 11/09 A3018 RMK AO2 T01110090 PNO
KTFP 200235Z AUTO 36005KT 10SM OVC009 11/09 A3017 RMK AO2 T01110090 PNO
KTFP 200215Z AUTO 02006KT 10SM OVC009 11/09 A3017 RMK AO2 T01100090 PNO
KTFP 200155Z AUTO 02008KT 10SM OVC009 11/09 A3016 RMK AO2 T01090090 PNO
KTFP 200135Z AUTO 02008KT 10SM OVC009 11/09 A3016 RMK AO2 T01070089 PNO
KTFP 200115Z AUTO 01007KT 10SM OVC009 11/09 A3015 RMK AO2 T01070090 PNO
KTFP 200055Z AUTO 35005KT 10SM OVC007 11/09 A3016 RMK AO2 T01070090 PNO
KTFP 200035Z AUTO 36006KT 10SM OVC007 11/09 A3014 RMK AO2 T01060089 PNO
KTFP 200015Z AUTO 01007KT 10SM OVC007 11/09 A3013 RMK AO2 T01050088 PNO
KTFP 192355Z AUTO 01008KT 7SM OVC007 11/09 A3013 RMK AO2 T01050086 PNO
KTFP 192335Z AUTO 01009KT 7SM OVC007 11/09 A3012 RMK AO2 T01050086 PNO
KTFP 192315Z AUTO 01009KT 10SM OVC007 10/09 A3012 RMK AO2 T01040085 PNO
KTFP 192255Z AUTO 36009KT 10SM OVC007 10/08 A3013 RMK AO2 T01030083 PNO
KTFP 192235Z AUTO 36010G14KT 10SM OVC005 10/08 A3012 RMK AO2 T01030083 PNO
KTFP 192215Z AUTO 36008KT 10SM OVC005 10/08 A3012 RMK AO2 T01030084 PNO
KTFP 192155Z AUTO 36008KT 10SM OVC005 10/09 A3012 RMK AO2 T01020085 PNO
KTFP 192135Z AUTO 01008KT 7SM OVC003 10/09 A3010 RMK AO2 T01010085 PNO
KTFP 192115Z AUTO 01008KT 7SM OVC003 10/09 A3010 RMK AO2 T01020085 PNO
KTFP 192055Z AUTO 01012KT 7SM OVC003 10/09 A3010 RMK AO2 T01030086 PNO
KTFP 192035Z AUTO 01009G15KT 7SM OVC005 10/09 A3010 RMK AO2 T01020085 PNO
KTFP 192015Z AUTO 36010KT 7SM OVC005 10/09 A3011 RMK AO2 T01020085 PNO
KTFP 191955Z AUTO 02009KT 7SM OVC003 10/08 A3011 RMK AO2 T01000084 PNO
KTFP 191935Z AUTO 36010KT 5SM BR OVC003 10/08 A3013 RMK AO2 T00980082 PNO
KTFP 191915Z AUTO 35011G14KT 7SM OVC003 10/08 A3013 RMK AO2 T00970081 PNO
KTFP 191855Z AUTO 01011KT 7SM OVC003 10/08 A3014 RMK AO2 T00980082 PNO
KTFP 191835Z AUTO 01010KT 7SM OVC003 10/08 A3015 RMK AO2 T00970082 PNO
KTFP 191815Z AUTO 03010KT 7SM OVC003 10/08 A3015 RMK AO2 T00960081 PNO
KTFP 191755Z AUTO 01009KT 7SM OVC003 10/08 A3016 RMK AO2 T00950081 PNO
KTFP 191735Z AUTO 01010G14KT 7SM OVC003 10/08 A3017 RMK AO2 T00950080 PNO
KTFP 191715Z AUTO 01009KT 7SM OVC003 10/08 A3017 RMK AO2 T00950080 PNO
KTFP 191655Z AUTO 36011KT 7SM OVC005 09/08 A3018 RMK AO2 T00940079 PNO
KTFP 191535Z AUTO 36010KT 4SM BR OVC003 09/08 A3018 RMK AO2 T00930080 PNO
KTFP 191515Z AUTO 01010KT 4SM BR OVC003 09/08 A3016 RMK AO2 T00930080 PNO
KTFP 191455Z AUTO 01010KT 4SM BR OVC003 09/08 A3016 RMK AO2 T00920080 PNO
KTFP 191435Z AUTO 01008KT 4SM BR OVC003 09/08 A3016 RMK AO2 T00920081 PNO
KTFP 191415Z AUTO 01007KT 5SM BR OVC003 09/08 A3015 RMK AO2 T00920081 PNO
KTFP 191355Z AUTO 36010G15KT 4SM BR OVC003 09/08 A3016 RMK AO2 T00920081 PNO
KTFP 191335Z AUTO 36009KT 3SM BR OVC003 09/08 A3015 RMK AO2 T00930082 PNO
KTFP 191315Z AUTO 01013KT 1 1/2SM BR OVC001 09/08 A3013 RMK AO2 T00940083 PNO
KTFP 191255Z AUTO 01008KT 2 1/2SM BR OVC001 10/09 A3013 RMK AO2 T00960086 PNO
KTFP 191235Z AUTO 01010KT 2 1/2SM BR OVC001 10/09 A3012 RMK AO2 T00970086 PNO
KTFP 191215Z AUTO 02009KT 2 1/2SM BR OVC001 10/09 A3012 RMK AO2 T00990087 PNO
KTFP 191155Z AUTO 02014G17KT 2 1/2SM BR OVC001 10/09 A3010 RMK AO2 T01000089 PNO
KTFP 191135Z AUTO 02013KT 1 1/2SM BR OVC001 10/09 A3010 RMK AO2 T01000090 PNO
KTFP 191115Z AUTO 02010KT 2 1/2SM BR OVC001 10/09 A3010 RMK AO2 T01030092 PNO
KTFP 191055Z AUTO 02011G16KT 2 1/2SM BR OVC003 11/09 A3010 RMK AO2 LTG DSNT NE T01050093 PNO
KTFP 191035Z AUTO 02010KT 4SM BR OVC003 11/10 A3010 RMK AO2 T01060095 PNO